createdAt,value
2022-08-23T00:01:32.417Z,96972.41
2022-08-23T00:03:58.364Z,96966.88
2022-08-23T00:06:24.350Z,96976.50
2022-08-23T00:08:50.316Z,96976.16
2022-08-23T00:11:16.268Z,96968.53
2022-08-23T00:13:47.622Z,96981.88
2022-08-23T00:16:14.285Z,96982.53
2022-08-23T00:18:40.920Z,96978.28
2022-08-23T00:21:13.695Z,96981.38
2022-08-23T00:23:39.637Z,96979.75
2022-08-23T00:26:06.298Z,96987.38
2022-08-23T00:28:32.322Z,96988.22
2022-08-23T00:30:58.559Z,96985.28
2022-08-23T00:33:25.770Z,96981.91
2022-08-23T00:35:52.177Z,96976.88
2022-08-23T00:38:32.682Z,96982.00
2022-08-23T00:41:01.170Z,96983.22
2022-08-23T00:46:07.786Z,96990.13
2022-08-23T02:52:56.889Z,97059.22
2022-08-23T02:55:22.954Z,97055.97
2022-08-23T02:57:48.915Z,97069.63
2022-08-23T03:00:14.905Z,97067.78
2022-08-23T03:02:41.526Z,97064.56
2022-08-23T03:05:07.548Z,97069.38
2022-08-23T03:07:33.545Z,97066.69
2022-08-23T03:10:01.383Z,97068.56
2022-08-23T03:12:27.666Z,97062.41
2022-08-23T03:14:53.691Z,97065.59
2022-08-23T03:17:19.643Z,97070.41
2022-08-23T03:19:45.605Z,97068.28
2022-08-23T03:22:11.653Z,97058.59
2022-08-23T03:24:37.620Z,97056.78
2022-08-23T03:27:03.584Z,97061.81
2022-08-23T03:29:30.478Z,97068.75
2022-08-23T03:31:56.442Z,97068.19
2022-08-23T03:34:23.627Z,97066.34
2022-08-23T03:36:49.928Z,97071.69
2022-08-23T03:39:16.585Z,97078.91
2022-08-23T03:41:42.566Z,97074.63
2022-08-23T03:44:08.575Z,97076.75
2022-08-23T03:46:35.248Z,97083.19
2022-08-23T03:49:01.243Z,97083.44
2022-08-23T03:51:27.268Z,97088.53
2022-08-23T03:53:53.236Z,97084.81
2022-08-23T03:56:19.870Z,97087.47
2022-08-23T03:58:45.874Z,97089.63
2022-08-23T04:01:11.875Z,97087.28
2022-08-23T04:03:37.844Z,97096.31
2022-08-23T04:06:03.859Z,97100.34
2022-08-23T04:08:33.865Z,97095.53
2022-08-23T04:11:00.063Z,97098.44
2022-08-23T04:13:26.073Z,97101.34
2022-08-23T04:15:53.273Z,97101.88
2022-08-23T04:18:20.010Z,97105.28
2022-08-23T04:20:46.011Z,97107.13
2022-08-23T04:23:11.959Z,97114.09
2022-08-23T04:25:38.537Z,97105.00
2022-08-23T04:28:04.563Z,97119.91
2022-08-23T04:30:30.543Z,97118.28
2022-08-23T04:32:57.263Z,97115.69
2022-08-23T04:35:24.095Z,97118.25
2022-08-23T04:37:50.087Z,97120.16
2022-08-23T04:40:16.913Z,97117.31
2022-08-23T04:42:42.953Z,97119.28
2022-08-23T04:45:09.622Z,97123.56
2022-08-23T04:47:35.613Z,97117.31
2022-08-23T04:50:01.627Z,97129.63
2022-08-23T04:52:28.307Z,97129.69
2022-08-23T04:54:54.303Z,97137.38
2022-08-23T04:57:20.333Z,97142.38
2022-08-23T04:59:47.040Z,97143.78
2022-08-23T05:02:13.044Z,97143.09
2022-08-23T05:04:39.028Z,97147.00
2022-08-23T05:07:06.522Z,97142.91
2022-08-23T05:09:32.466Z,97155.75
2022-08-23T05:11:59.403Z,97157.75
2022-08-23T05:14:25.366Z,97157.34
2022-08-23T05:16:51.321Z,97156.19
2022-08-23T05:19:18.311Z,97161.72
2022-08-23T05:21:44.273Z,97159.63
2022-08-23T05:24:13.820Z,97173.06
2022-08-23T05:26:40.018Z,97172.56
2022-08-23T05:29:06.729Z,97171.38
2022-08-23T05:31:32.963Z,97180.91
2022-08-23T05:33:59.252Z,97184.41
2022-08-23T05:36:26.580Z,97177.28
2022-08-23T05:38:52.863Z,97185.06
2022-08-23T05:41:19.153Z,97189.19
2022-08-23T05:43:49.832Z,97195.56
2022-08-23T05:46:15.964Z,97197.69
2022-08-23T07:48:14.522Z,97233.06
2022-08-23T07:50:51.079Z,97238.44
2022-08-23T07:53:32.038Z,97239.53
2022-08-23T07:56:04.666Z,97238.16
2022-08-23T07:58:30.691Z,97233.06
2022-08-23T08:00:56.642Z,97233.09
2022-08-23T08:03:22.608Z,97244.59
2022-08-23T08:05:48.639Z,97239.78
2022-08-23T08:08:14.618Z,97239.53
2022-08-23T08:10:41.346Z,97235.50
2022-08-23T08:13:07.405Z,97236.56
2022-08-23T08:15:33.367Z,97233.88
2022-08-23T08:17:59.412Z,97238.94
2022-08-23T08:20:25.568Z,97239.44
2022-08-23T08:22:58.474Z,97241.50
2022-08-23T08:25:26.271Z,97239.88
2022-08-23T08:27:53.005Z,97238.03
2022-08-23T08:30:18.983Z,97238.53
2022-08-23T08:32:47.469Z,97241.47
2022-08-23T08:35:13.568Z,97234.72
2022-08-23T08:37:40.354Z,97242.34
2022-08-23T08:40:08.647Z,97245.16
2022-08-23T08:42:34.675Z,97238.16
2022-08-23T08:45:01.408Z,97240.19
2022-08-23T08:47:28.262Z,97240.94
2022-08-23T08:49:54.896Z,97236.53
2022-08-23T08:52:20.890Z,97243.97
2022-08-23T08:54:48.348Z,97244.09
2022-08-23T08:57:14.409Z,97241.41
2022-08-23T08:59:40.406Z,97245.16
2022-08-23T09:02:06.426Z,97247.84
2022-08-23T09:04:48.096Z,97249.88
2022-08-23T09:07:14.934Z,97266.50
2022-08-23T09:09:40.924Z,97252.72
2022-08-23T09:12:06.870Z,97263.00
2022-08-23T09:14:33.880Z,97276.66
2022-08-23T09:16:59.859Z,97271.28
2022-08-23T09:19:26.956Z,97268.72
2022-08-23T09:21:53.887Z,97267.94
2022-08-23T09:24:19.898Z,97280.47
2022-08-23T09:26:45.870Z,97278.38
2022-08-23T09:29:12.782Z,97275.84
2022-08-23T09:31:38.863Z,97275.78
2022-08-23T09:34:05.757Z,97280.94
2022-08-23T09:36:32.653Z,97277.13
2022-08-23T09:38:58.635Z,97284.09
2022-08-23T09:41:24.592Z,97288.16
2022-08-23T09:43:52.310Z,97286.84
2022-08-23T09:46:18.889Z,97287.44
2022-08-23T09:48:44.899Z,97293.75
2022-08-23T09:51:11.223Z,97288.09
2022-08-23T09:53:41.593Z,97295.56
2022-08-23T09:56:07.633Z,97286.84
2022-08-23T09:58:33.553Z,97297.72
2022-08-23T10:01:00.251Z,97290.28
2022-08-23T10:03:26.222Z,97286.31
2022-08-23T10:05:52.238Z,97295.13
2022-08-23T10:08:18.941Z,97298.59
2022-08-23T10:10:45.793Z,97305.97
2022-08-23T10:13:17.029Z,97317.78
2022-08-23T10:15:43.039Z,97317.63
2022-08-23T10:18:09.040Z,97321.19
2022-08-23T10:20:35.022Z,97320.72
2022-08-23T10:23:01.721Z,97327.22
2022-08-23T10:25:29.229Z,97329.19
2022-08-23T10:27:55.579Z,97328.78
2022-08-23T10:30:21.876Z,97335.34
2022-08-23T10:32:48.211Z,97330.84
2022-08-23T10:35:14.629Z,97333.81
2022-08-23T10:37:40.862Z,97341.31
2022-08-23T10:40:08.222Z,97339.53
2022-08-23T12:43:28.831Z,97359.22
2022-08-23T12:45:54.888Z,97355.19
2022-08-23T12:48:20.902Z,97353.28
2022-08-23T12:50:46.889Z,97356.88
2022-08-23T12:53:13.164Z,97359.59
2022-08-23T12:55:39.369Z,97356.53
2022-08-23T12:58:05.400Z,97359.25
2022-08-23T13:00:31.349Z,97356.44
2022-08-23T13:02:57.436Z,97363.16
2022-08-23T13:05:24.664Z,97358.56
2022-08-23T13:07:50.865Z,97364.84
2022-08-23T13:10:16.865Z,97358.00
2022-08-23T13:12:43.678Z,97364.69
2022-08-23T13:15:10.247Z,97361.88
2022-08-23T13:17:36.202Z,97356.81
2022-08-23T13:20:02.216Z,97353.00
2022-08-23T13:22:28.921Z,97355.09
2022-08-23T13:25:17.521Z,97353.75
2022-08-23T13:27:40.920Z,97351.16
2022-08-23T13:30:06.913Z,97346.31
2022-08-23T13:32:32.876Z,97344.47
2022-08-23T13:34:58.853Z,97349.19
2022-08-23T13:37:25.004Z,97336.41
2022-08-23T13:39:50.982Z,97336.94
2022-08-23T13:42:19.032Z,97337.66
2022-08-23T13:44:45.089Z,97337.72
2022-08-23T13:47:11.100Z,97345.28
2022-08-23T13:49:37.200Z,97342.75
2022-08-23T13:52:41.286Z,97335.44
2022-08-23T13:54:52.811Z,97335.81
2022-08-23T13:57:19.125Z,97320.94
2022-08-23T13:59:45.067Z,97322.75
2022-08-23T14:02:11.962Z,97318.22
2022-08-23T14:04:38.000Z,97322.16
2022-08-23T14:07:04.082Z,97319.84
2022-08-23T14:09:30.074Z,97317.00
2022-08-23T14:11:56.047Z,97329.94
2022-08-23T14:14:21.998Z,97329.75
2022-08-23T14:16:48.980Z,97336.94
2022-08-23T14:19:16.492Z,97340.81
2022-08-23T14:21:44.163Z,97340.47
2022-08-23T14:24:11.068Z,97340.84
2022-08-23T14:26:37.084Z,97340.06
2022-08-23T14:29:03.045Z,97341.16
2022-08-23T14:31:29.118Z,97336.16
2022-08-23T14:33:57.757Z,97342.44
2022-08-23T14:36:27.840Z,97344.00
2022-08-23T14:38:56.114Z,97343.13
2022-08-23T14:41:22.852Z,97350.59
2022-08-23T14:43:48.837Z,97348.50
2022-08-23T14:46:14.864Z,97345.66
2022-08-23T14:48:41.395Z,97354.03
2022-08-23T14:51:07.677Z,97356.22
2022-08-23T14:53:33.786Z,97363.44
2022-08-23T14:56:20.286Z,97363.19
2022-08-23T14:58:46.458Z,97359.22
2022-08-23T15:01:12.532Z,97358.97
2022-08-23T15:03:38.593Z,97363.56
2022-08-23T15:06:05.490Z,97363.25
2022-08-23T15:08:31.495Z,97366.50
2022-08-23T15:13:55.209Z,97360.34
2022-08-23T15:16:22.274Z,97362.75
2022-08-23T15:18:49.983Z,97365.28
2022-08-23T15:21:16.292Z,97366.16
2022-08-23T15:23:42.351Z,97366.81
2022-08-23T15:26:10.161Z,97366.47
2022-08-23T15:28:37.608Z,97370.84
2022-08-23T15:31:04.056Z,97372.28
2022-08-23T15:33:30.798Z,97372.50
2022-08-23T15:35:57.538Z,97375.09
2022-08-23T17:37:52.999Z,97415.41
2022-08-23T17:40:21.391Z,97424.00
2022-08-23T17:42:47.597Z,97431.75
2022-08-23T17:45:14.472Z,97428.03
2022-08-23T17:47:40.440Z,97426.66
2022-08-23T17:50:06.905Z,97431.31
2022-08-23T17:52:32.891Z,97440.28
2022-08-23T17:54:58.889Z,97439.66
2022-08-23T17:57:25.002Z,97442.06
2022-08-23T17:59:51.337Z,97445.63
2022-08-23T18:02:17.285Z,97436.13
2022-08-23T18:04:43.273Z,97448.75
2022-08-23T18:07:10.215Z,97442.75
2022-08-23T18:09:40.100Z,97448.75
2022-08-23T18:12:14.286Z,97452.75
2022-08-23T18:14:40.238Z,97456.94
2022-08-23T18:17:06.962Z,97455.28
2022-08-23T18:19:32.994Z,97458.59
2022-08-23T18:22:02.316Z,97459.13
2022-08-23T18:24:28.651Z,97462.59
2022-08-23T18:26:54.854Z,97465.00
2022-08-23T18:29:20.838Z,97467.59
2022-08-23T18:31:46.817Z,97485.19
2022-08-23T18:34:13.735Z,97481.19
2022-08-23T18:36:39.686Z,97488.22
2022-08-23T18:39:05.636Z,97491.13
2022-08-23T18:41:32.238Z,97493.34
2022-08-23T18:43:58.239Z,97493.06
2022-08-23T18:46:24.199Z,97493.78
2022-08-23T18:48:53.789Z,97494.25
2022-08-23T18:51:20.670Z,97491.88
2022-08-23T18:53:46.648Z,97498.63
2022-08-23T18:56:12.660Z,97495.13
2022-08-23T18:58:39.401Z,97495.94
2022-08-23T19:01:06.691Z,97491.09
2022-08-23T19:03:32.838Z,97490.84
2022-08-23T19:05:58.788Z,97502.72
2022-08-23T19:08:25.491Z,97507.00
2022-08-23T19:10:51.565Z,97512.34
2022-08-23T19:13:17.527Z,97511.28
2022-08-23T19:15:43.484Z,97513.47
2022-08-23T19:18:09.505Z,97518.03
2022-08-23T19:20:35.481Z,97512.63
2022-08-23T19:23:02.140Z,97506.47
2022-08-23T19:25:29.094Z,97515.88
2022-08-23T19:27:58.438Z,97523.41
2022-08-23T19:30:24.443Z,97529.06
2022-08-23T19:32:54.458Z,97530.13
2022-08-23T19:35:20.412Z,97531.22
2022-08-23T19:37:47.171Z,97539.78
2022-08-23T19:40:13.277Z,97538.19
2022-08-23T19:42:39.251Z,97534.97
2022-08-23T19:45:05.211Z,97540.03
2022-08-23T19:47:32.161Z,97547.81
2022-08-23T19:49:58.151Z,97541.97
2022-08-23T19:52:24.110Z,97546.22
2022-08-23T19:54:50.970Z,97554.03
2022-08-23T19:57:17.713Z,97554.81
2022-08-23T19:59:44.005Z,97561.28
2022-08-23T20:02:10.073Z,97553.44
2022-08-23T20:04:36.992Z,97549.41
2022-08-23T20:07:03.329Z,97561.72
2022-08-23T20:09:29.332Z,97559.31
2022-08-23T20:11:55.553Z,97561.22
2022-08-23T20:14:21.910Z,97559.63
2022-08-23T20:16:48.257Z,97561.81
2022-08-23T20:21:55.074Z,97566.88
2022-08-23T20:24:37.352Z,97563.09
2022-08-23T20:29:48.397Z,97560.22
2022-08-23T22:31:56.158Z,97538.03
2022-08-23T22:34:22.165Z,97531.75
2022-08-23T22:36:52.005Z,97537.41
2022-08-23T22:39:19.191Z,97535.91
2022-08-23T22:41:45.245Z,97529.41
2022-08-23T22:44:11.251Z,97524.25
2022-08-23T22:46:37.386Z,97528.28
2022-08-23T22:49:03.450Z,97524.13
2022-08-23T22:51:29.438Z,97518.22
2022-08-23T22:53:55.516Z,97512.06
2022-08-23T22:56:22.256Z,97507.84
2022-08-23T22:58:51.678Z,97512.59
2022-08-23T23:01:18.915Z,97513.44
2022-08-23T23:03:45.811Z,97513.81
2022-08-23T23:06:11.942Z,97508.06
2022-08-23T23:08:38.024Z,97500.69
2022-08-23T23:11:04.810Z,97506.81
2022-08-23T23:13:30.804Z,97509.41
2022-08-23T23:15:56.872Z,97513.09
2022-08-23T23:18:23.672Z,97503.22
2022-08-23T23:20:49.657Z,97504.16
2022-08-23T23:23:16.218Z,97500.16
2022-08-23T23:25:42.857Z,97495.50
2022-08-23T23:28:08.860Z,97496.78
2022-08-23T23:30:35.822Z,97501.72
2022-08-23T23:33:01.950Z,97504.03
2022-08-23T23:35:27.952Z,97498.88
2022-08-23T23:37:54.000Z,97497.66
2022-08-23T23:40:20.027Z,97505.56
2022-08-23T23:42:46.295Z,97499.03
2022-08-23T23:45:12.373Z,97505.00
2022-08-23T23:47:38.472Z,97504.19
2022-08-23T23:50:04.458Z,97498.47
2022-08-23T23:52:32.201Z,97500.38
2022-08-23T23:54:58.212Z,97504.31
2022-08-23T23:57:24.203Z,97509.88
2022-08-23T23:59:51.163Z,97503.22
